events-overview

Kinetic Sprint

 

Overall Women

Lake Anna State Park - Spotsylvania, VA 5/12/2013 09:00AM

** Results are for the private use of participants and are the Intellectual Property of Set Up Events. Unauthorized use of these results is prohibited.

Place Bib Ag S NAME city/state DQ Rank SWIM Rank T1 Rank Bike Rank T2 Rank RUN PENALTY TIME DQ
124441FHeather WestermanLigonier PA 100:09:57900:01:51100:41:13600:00:46600:21:52 01:15:37 
220615FTaylor KnibbWashington DC 300:10:19600:01:42300:43:383700:01:00100:20:26 01:17:03 
316431FJennifer GephartArlington VA 400:11:04500:01:41200:42:541400:00:53400:21:48 01:18:19 
4540FRobin WitlinOak Hill VA 2300:13:071300:02:03400:44:126500:01:12200:21:12 01:21:44 
546819FKathleen DodsonSpringfield VA 200:10:14300:01:301800:47:222100:00:551600:23:02 01:23:00 
66938FLisa HowensteinClifton VA 700:11:481200:02:01700:45:00800:00:493500:24:07 01:23:43 
743027FSara BlackWoodbridge VA 500:11:072500:02:161700:47:162300:00:552100:23:15 01:24:47 
848441FChristina MeyerCharlottesville VA 5600:14:421800:02:10500:44:371700:00:541700:23:04 01:25:25 
911332FKatherine TobinWashington DC 600:11:372700:02:182000:47:362700:00:562600:23:24 01:25:49 
1030036FKathy LettFalls Church VA 4100:14:044000:02:26800:45:185100:01:051500:23:00 01:25:50 
1113244FDebbie FreivaldManassas VA 6300:15:056100:02:41600:44:481200:00:531000:22:33 01:25:57 
123736FNicole WeidensaulLocust Grove VA 2700:13:252300:02:141400:46:273000:00:572400:23:17 01:26:19 
1356232FEmily DillonChesterfield VA 1200:12:251700:02:102100:47:4213600:01:401400:22:59 01:26:53 
1420935FDixie KingChesapeake VA 7500:15:442600:02:171000:45:442400:00:55900:22:28 01:27:06 
1516541FStephanie ProssCulpeper VA 800:11:592100:02:121600:46:553800:01:004900:25:02 01:27:06 
1616932FJulie GunzenhaeuserArlington VA 1600:12:362400:02:161100:46:0212300:01:346100:25:30 01:27:55 
1715043FPeggy NeidigChesapeake VA 4500:14:08700:01:451500:46:543900:01:004400:24:40 01:28:26 
1817325FAshley KearcherCharleroi PA 5400:14:373800:02:252600:48:233300:00:59800:22:26 01:28:49 
1942830FNicole ShepardStaunton VA 10400:16:37800:01:501200:46:1610800:01:282300:23:16 01:29:24 
2014937FKanchani AlgamaWashington DC 4000:14:041500:02:064400:49:477400:01:161200:22:38 01:29:48 
2129227FRebecca CharltonArlington VA 2000:13:025600:02:352900:48:509400:01:223400:24:02 01:29:49 
2235450FKatherine McKnightFairfax VA 6500:15:132200:02:122200:47:486900:01:142700:23:27 01:29:53 
234532FElisha CookChesapeake VA 5800:14:479200:03:063100:48:567600:01:17500:21:51 01:29:56 
2452928FChristina NuttingWashington DC 2400:13:103500:02:232700:48:263400:00:595300:25:09 01:30:05 
2511632FRebecca ReutlingerAlexandria VA 3300:13:378100:02:584100:49:411300:00:531800:23:11 01:30:19 
2643729FLauren LipseyArlington VA 2500:13:153000:02:224600:49:592000:00:553200:23:52 01:30:22 
2712133FAudrey PerlowArlington VA 9800:16:294700:02:303200:49:072800:00:57700:22:12 01:31:12 
283246FLeanne McAllisterLeesburg VA 4800:14:193900:02:263300:49:105000:01:054200:24:36 01:31:34 
2960344FHolly NorthupNewport News VA 1400:12:273100:02:225000:50:095500:01:086800:26:12 01:32:16 
3046034FMolly ClemonsFincastle VA 7700:15:484200:02:275400:50:172200:00:552000:23:15 01:32:40 
PlaceBibAgSNAMEcity/stateDQRankSWIMRankT1RankBikeRankT2RankRUNPENALTYTIMEDQ
31353FJulie CaprioParkville MD 4700:14:1412500:03:312400:48:044700:01:046700:26:07 01:32:58 
3260542FSarah RodriguezWheaton MD 6200:15:011000:01:575700:50:363100:00:584300:24:37 01:33:08 
3341355FConnie MaxwellNewport News VA 5000:14:2613100:03:34900:45:398000:01:1812600:28:27 01:33:24 
3437831FRena GreifingerWashington DC 8800:16:127400:02:495900:50:446600:01:131100:22:38 01:33:34 
3529428FJamey ReddingWashington DC 8500:16:041600:02:095500:50:197700:01:173000:23:48 01:33:34 
3658821FAlexandria GagnonLexington VA 11300:16:543700:02:255100:50:156400:01:121900:23:13 01:33:56 
3741127FKylie GoodellTakoma Park MD 4300:14:067300:02:496400:51:4514300:01:442800:23:38 01:34:01 
3837326FAlexandra HughesWashington DC 2600:13:1814700:03:445300:50:1710500:01:275800:25:24 01:34:08 
3941041FPauline OwenKing George VA 8400:16:035100:02:323700:49:244500:01:035400:25:11 01:34:11 
4043658FTobin GattoAlexandria VA 3700:13:576500:02:436000:50:5617600:01:594500:24:42 01:34:14 
4127125FMeghan AbramczykArlington VA 1100:12:198900:03:046500:51:464600:01:037200:26:17 01:34:28 
4213640FHeather GrossmanGainesville VA 7200:15:288500:03:014300:49:4310400:01:275500:25:13 01:34:49 
4357146FSusan BrewtonWashington DC 7100:15:2511400:03:231900:47:3210300:01:275100:25:0400:02:0001:34:49 
4459644FValerie KramerPenn Laird VA 8200:15:579800:03:114800:50:074400:01:024100:24:34 01:34:50 
4558953FCecelia KirkmanStafford VA 4400:14:076400:02:422500:48:2012800:01:3612100:28:13 01:34:55 
466150FJeanmarie BantzAfton VA 14200:18:206300:02:422800:48:433500:01:004000:24:34 01:35:16 
4719425FCorinn PopeArlington VA 6000:14:565400:02:343600:49:188500:01:209400:27:15 01:35:21 
4839924FAmy MiaoNorth Potomac MD 5300:14:335700:02:377200:52:2010700:01:273800:24:30 01:35:26 
4924938FErin ConnerWashington DC 14700:18:359700:03:103000:48:5613900:01:422200:23:16 01:35:37 
509333FKristy GreenEllicott City MD 11600:17:044800:02:314900:50:085700:01:094800:24:52 01:35:42 
519742FMissy ThaxtonOakton VA 14400:18:237200:02:482300:47:5611300:01:296300:25:41 01:36:15 
5244846FBecky KendallOak Hill VA 13900:18:128000:02:583800:49:261500:00:545000:25:04 01:36:33 
5353629FChristina ClarkWashington DC 3600:13:566800:02:4510400:54:576100:01:113300:23:57 01:36:44 
5453227FJennifer WeaverChantilly VA 2900:13:3220500:04:479400:54:021000:00:522900:23:42 01:36:53 
5531338FGina ShandChesterfield VA 5200:14:292000:02:123900:49:279500:01:2314800:29:28 01:36:56 
569636FGretchen CullenbergArlington VA 7000:15:246000:02:414200:49:4316600:01:5410100:27:30 01:37:09 
579035FMargaret GrayReston VA 8900:16:131400:02:057600:52:338700:01:205600:25:14 01:37:23 
5842448FAlison SimonWashington DC 10800:16:426700:02:454500:49:56900:00:509600:27:21 01:37:32 
5936129FAmy SmithReston VA 900:12:113300:02:2310100:54:396700:01:149700:27:22 01:37:46 
6027342FJohanna TaddikenArlington VA 7900:15:529900:03:115600:50:278600:01:209800:27:24 01:38:11 
6137024FRebecca CraftRichmond VA 14300:18:221100:01:577900:52:51200:00:384600:24:43 01:38:29 
PlaceBibAgSNAMEcity/stateDQRankSWIMRankT1RankBikeRankT2RankRUNPENALTYTIMEDQ
6245536FKristin WedemeyerReston VA 2800:13:273600:02:259200:53:554200:01:0111300:27:50 01:38:36 
6359954FEllen GuintherRichmond VA 4200:14:068700:03:0410200:54:4013100:01:375700:25:22 01:38:47 
646232FNikki UsherCabin John MD 8600:16:1114900:03:448800:53:277500:01:163700:24:19 01:38:55 
6536630FSierra WinserKing George VA 2200:13:064600:02:307300:52:2610200:01:2715100:29:42 01:39:09 
6617736FKathy ColemanSterling VA 11700:17:065200:02:326100:51:109700:01:238900:27:05 01:39:14 
6757435FCarolyn BasistaWashington DC 6800:15:2111800:03:266900:52:0312700:01:358400:26:55 01:39:18 
6812643FTricia PowellRichmond VA 10200:16:3012700:03:323500:49:147000:01:1414000:28:56 01:39:25 
691444FEmily ArmstrongRockville MD 17600:19:277900:02:563400:49:134100:01:018500:26:55 01:39:30 
7035636FCarrie GoodgeWashington DC 3900:14:0012000:03:278600:53:2213700:01:409000:27:06 01:39:32 
7114046FMichele VaughanFront Royal VA 10500:16:3710400:03:157100:52:16700:00:488100:26:45 01:39:38 
7218129FJaime PooleAlexandria VA 3200:13:3611500:03:2410300:54:5114100:01:446600:26:06 01:39:40 
7369820FKelsey BarklundCulpeper VA 3500:13:463400:02:238300:53:082500:00:5514900:29:32 01:39:42 
7450642FYoko TakeuchiAlexandria VA 8100:15:566200:02:428500:53:1812600:01:357500:26:29 01:39:58 
7562230FKealan SloanWashington DC 6600:15:186600:02:446300:51:3116200:01:5113400:28:46 01:40:08 
7640034FAmanda MaxwellWashington DC 16100:18:592900:02:209300:53:5818000:02:001300:22:56 01:40:11 
7725533FJacky BowerStafford VA 1700:12:3915000:03:4410800:55:058100:01:1910000:27:27 01:40:12 
7866437FRebecca JonesFairfax VA 16000:18:571900:02:115800:50:441600:00:5410700:27:43 01:40:28 
797156FJulie DawleyCulpeper VA 4900:14:2411600:03:258900:53:28300:00:3913900:28:55 01:40:50 
8046232FKristen FagleyWashington DC 1300:12:2612800:03:3313300:56:3320400:02:207100:26:17 01:41:07 
8118028FLauren KuhmerkerArlington VA 1500:12:349100:03:0616500:59:045200:01:065900:25:24 01:41:11 
8266129FErin MooreLynchburg VA 3000:13:334900:02:3112700:56:01400:00:3912900:28:34 01:41:16 
8340726FKjersti SmedleyWoodbridge VA 3400:13:425500:02:3411800:55:302900:00:5713500:28:46 01:41:27 
8442555FMarjorie AuerAlexandria VA 3100:13:344500:02:305200:50:167800:01:1720400:33:58 01:41:32 
855826FLisa EnglandArlington VA 12400:17:2216600:04:008100:53:019800:01:237300:26:18 01:42:03 
8658431FKelly SmithWashington DC 11900:17:119600:03:086800:52:0111900:01:3212300:28:16 01:42:07 
8719745FLaura JacksonArlington VA 12500:17:2414200:03:4112800:56:0317200:01:562500:23:19 01:42:22 
885231FSamantha BatkoSpringfield VA 1900:13:015000:02:3215400:58:164000:01:0110800:27:44 01:42:31 
8948339FAllison DavisWashington DC 5100:14:2814800:03:4412300:55:469100:01:219500:27:18 01:42:36 
905543FLisa MackemReston VA 19600:20:4010600:03:164700:50:0412400:01:3410300:27:35 01:43:07 
9143245FBecky SmithLaurel MD 9600:16:278600:03:018000:53:019600:01:2314600:29:23 01:43:12 
9253831FRebeccah WatsonWashington DC 9400:16:1816700:04:017500:52:2824300:03:368300:26:52 01:43:12 
PlaceBibAgSNAMEcity/stateDQRankSWIMRankT1RankBikeRankT2RankRUNPENALTYTIMEDQ
9327028FColleen CassidyAlexandria VA 7300:15:3915600:03:4711600:55:2514600:01:457900:26:40 01:43:13 
9459440FSandy EliaKing George VA 9300:16:175900:02:3911100:55:125600:01:0811900:28:01 01:43:15 
9541841FJennifer MallardMcLean VA 1000:12:114100:02:2719201:01:2013800:01:416500:26:00 01:43:37 
9647132FBeth WareKensington MD 13300:17:369300:03:067400:52:2715000:01:4714100:28:59 01:43:54 
9713339FMarni MillerFairfax VA 10100:16:308300:02:5910600:54:593200:00:5812800:28:31 01:43:56 
984137FMaureen DunniganSterling VA 17900:19:41      5200:25:06 01:44:01 
9910734FMelanie ZiarkoAlexandria VA 6900:15:2311900:03:2618101:00:088900:01:213100:23:51 01:44:07 
10038626FMarie RandolphFairfax VA 14800:18:3613900:03:397800:52:5019400:02:118800:27:05 01:44:19 
10147025FMaria MuscaraArlington VA 7400:15:4114500:03:4316200:58:5414900:01:463900:24:33 01:44:35 
10210435FMeghan ManionArlington VA 13600:18:0612900:03:336600:51:4611700:01:3215200:29:45 01:44:41 
10321135FEily HayesChevy Chase MD 12300:17:1913000:03:3411300:55:1910100:01:269100:27:11 01:44:47 
1042047FMichele PotterGermantown MD 10300:16:3017400:04:059700:54:1814000:01:4313200:28:43 01:45:18 
10561347FNancy MorrisLexington Park MD 5900:14:546900:02:4612900:56:1417300:01:5615000:29:36 01:45:25 
10652723FAlysha LanglowToano VA 7600:15:4517800:04:1314400:57:299300:01:227800:26:37 01:45:25 
10734030FJanice KwaWashington DC 10700:16:4111300:03:227000:52:1411000:01:2818200:31:46 01:45:29 
1083838FStephanie MitchellArlington VA 18200:19:507800:02:548400:53:0818200:02:0011100:27:48 01:45:39 
1092148FShannon BairdFalls Church VA 18400:19:5912400:03:314000:49:3022800:03:0216400:30:22 01:46:22 
11062130FRachael BoschWashington DC 14600:18:285300:02:3315200:58:102600:00:567400:26:20 01:46:24 
11160923FBrittany BoyerDanville VA 11200:16:5121200:05:0111200:55:1815600:01:4910200:27:35 01:46:32 
11216028FLaura DavisArlington VA 13000:17:334300:02:2713900:57:164900:01:0412400:28:18 01:46:36 
11320835FJennifer RobbArlington VA 19500:20:3515500:03:4610000:54:3511800:01:327600:26:31 01:46:58 
11448641FKristin DohertyWinchester VA 5500:14:4119200:04:2614600:57:3310900:01:2814300:29:03 01:47:09 
11555031FKristen GroseColumbia MD 10900:16:4221100:05:009600:54:0624400:03:4010900:27:45 01:47:10 
1165134FEmily CarterVienna VA 17200:19:217100:02:4716300:58:5516500:01:533600:24:18 01:47:12 
11725446FAnn McDermottPotomac MD 8700:16:1217200:04:049900:54:3119500:02:1116500:30:22 01:47:19 
11864133FTricia BirdsellLorton VA 4600:14:1417100:04:0218301:00:168800:01:2111400:27:54 01:47:45 
1197944FHeather SkinnerKensington MD 11800:17:1012100:03:2713800:57:067100:01:1513800:28:53 01:47:49 
12065938FJeanette WagnerCentreville VA 23600:28:29400:01:351300:46:21500:00:4416900:30:49 01:47:56 
1218443FLisa HarfootAlexandria VA 12900:17:329400:03:0615700:58:259200:01:2111000:27:46 01:48:08 
12258218FAbby BashamDumfries VA 2100:13:053200:02:2318501:00:301100:00:5218000:31:39 01:48:27 
12330131FCaroline MahGaithersburg MD 11100:16:515800:02:3913500:56:4418100:02:0016300:30:21 01:48:33 
PlaceBibAgSNAMEcity/stateDQRankSWIMRankT1RankBikeRankT2RankRUNPENALTYTIMEDQ
1244328FAshley SparkmanArlington VA 16500:19:1310700:03:1614700:57:4413400:01:398200:26:47 01:48:38 
12511238FJanet ChowAshburn VA 20700:21:3913300:03:3511500:55:2312500:01:357700:26:33 01:48:43 
12637931FKatie HigginbothomArlington VA 18700:20:0510500:03:1613600:56:5710600:01:278700:27:04 01:48:46 
12748730FMary DillonChesapeake VA 15300:18:4724300:06:439000:53:3416700:01:5411800:28:00 01:48:55 
12819255FJoni BrigantiSpotsylvania VA 6700:15:1920400:04:428700:53:2217800:01:5920000:33:40 01:49:01 
12953133FJulie GreenAlexandria VA 18000:19:4210200:03:1413400:56:426000:01:1013100:28:43 01:49:30 
13048051FKristina AmentAlexandria VA 14500:18:2717700:04:1013100:56:3020500:02:2112200:28:14 01:49:40 
13139259FMaggie BartlettBoyds MD 9900:16:2914000:03:4012200:55:4216100:01:5118500:32:01 01:49:42 
13232130FJessica FrazierAshburn VA 19400:20:3216300:03:5811700:55:2920600:02:229900:27:24 01:49:43 
13355425FRachel GottfriedArlington VA 14000:18:1616200:03:5711400:55:2023600:03:1414200:29:00 01:49:46 
13459330FJessika BriggsVirginia Beach VA 9200:16:178400:02:5916100:58:4018900:02:0615300:29:46 01:49:46 
13538066FRuth HamiltonMcLean VA 16300:19:047000:02:4712100:55:4211400:01:2917100:30:55 01:49:55 
13641958FCarol BrooksReston VA 15700:18:5418800:04:259100:53:4819000:02:0717000:30:49 01:50:00 
13717044FNina CronDpo XX 14100:18:1919300:04:276700:51:5921700:02:3919300:32:43 01:50:06 
13831244FKatrina KoomeyArlington VA 15800:18:5515100:03:4510700:55:0521500:02:3515600:29:53 01:50:10 
13942043FKelly VelasquezSilver Spring MD 3800:13:5923400:06:139500:54:0323900:03:2119400:32:44 01:50:17 
14055749FJeannie LabellaBristow VA 16200:19:0315900:03:5013200:56:3116400:01:5214400:29:05 01:50:18 
14124535FJanis BowdlerWashington DC 13400:17:3721300:05:0117500:59:4815800:01:507000:26:15 01:50:29 
1428831FChristy WahleArlington VA 15400:18:5016800:04:0116700:59:1811200:01:288600:26:57 01:50:32 
14333234FBecky BaltesSilver Spring MD 15500:18:5210000:03:1215600:58:2019800:02:1411500:27:57 01:50:33 
14427624FJessica DalyWashington DC 22400:24:4012200:03:2710900:55:0615200:01:486200:25:34 01:50:33 
14521630FKathryn HumphreyCentreville VA 16800:19:158800:03:0412000:55:409900:01:2517400:31:13 01:50:35 
14652430FNewsha Nazmi AnsaryLeesburg VA 21400:23:0418200:04:197700:52:4617400:01:5713700:28:51 01:50:56 
14766250FMargaret WrightAlexandria VA 18800:20:0912600:03:328200:53:0415300:01:4916700:30:3600:02:0001:51:07 
14846332FHolly PeartAlexandria VA 14900:18:3612300:03:3014300:57:2816000:01:5015500:29:51 01:51:14 
14956949FMary WagnerVirginia Beach VA 20500:21:2911200:03:2012600:55:5922200:02:5410400:27:37 01:51:18 
15047231FJennifer SmithRockville MD 12100:17:1817300:04:0515100:58:0223000:03:0414500:29:14 01:51:41 
15144022FJulie VetalManassas VA 11500:16:5710100:03:1320601:04:2014400:01:456000:25:29 01:51:42 
15245126FErika SchwartzWashington DC 13200:17:35         01:51:48 
15357725FAlexis LevinsonWashington DC 16700:19:1513600:03:3616400:59:0420000:02:1610600:27:40 01:51:49 
15445026FChristine BorgesWashington DC 15600:18:5318500:04:2217700:59:5421900:02:446400:25:59 01:51:49 
PlaceBibAgSNAMEcity/stateDQRankSWIMRankT1RankBikeRankT2RankRUNPENALTYTIMEDQ
15536846FSharon Westfall-LoomisNewport News VA 15000:18:3719400:04:2818701:00:3519100:02:076900:26:13 01:51:58 
1568944FLisa FolbCentreville VA 15900:18:5615200:03:4518001:00:0713300:01:3710500:27:38 01:52:02 
15746640FKerensa HadleyFairfax VA 11000:16:474400:02:2917801:00:0211500:01:3117500:31:17 01:52:04 
15869229FKaitlin ShineAlexandria VA 12600:17:2621900:05:1514900:57:5424000:03:2512000:28:06 01:52:05 
15921237FMegan GonzalesVirginia Beach VA 11400:16:5711700:03:2512400:55:4712200:01:3320800:34:27 01:52:08 
16022444FEmily HarrisonGlen Allen VA 15200:18:4314100:03:4115900:58:318400:01:2015900:30:04 01:52:16 
16120759FCarol GruenburgAlexandria VA 12000:17:1722100:05:2517600:59:5018500:02:0411200:27:49 01:52:23 
1624628FBrittany HedgesWashington DC 9100:16:1517600:04:0816800:59:2218300:02:0113300:28:4500:02:0001:52:30 
16326257FMelinda ScraffordClifton VA 19200:20:2820000:04:399800:54:3021000:02:2716800:30:37 01:52:39 
16423120FMarika EmanuelCentreville VA 1800:12:509000:03:0520501:04:093600:01:0018100:31:40 01:52:41 
16543947FMeg ForemanFalls Church VA 16400:19:129500:03:0614000:57:2117000:01:5517200:31:09 01:52:41 
16651450FJulia KadisonWashington DC 18500:20:0023700:06:2415500:58:185800:01:109200:27:12 01:53:01 
16739136FKatherine LindlerPoquoson VA 13700:18:1015300:03:4617100:59:3210000:01:2616600:30:34 01:53:24 
16816637FKatherine SkellyLeesburg VA 13500:18:0413200:03:3513000:56:2411100:01:2820600:34:23 01:53:52 
16961632FAddie SchroederArlington VA 22000:23:3818900:04:2510500:54:5821200:02:3112700:28:29 01:53:59 
17066731FKate VaskoArlington VA 7800:15:497700:02:5416000:58:356200:01:1121500:36:02 01:54:30 
17149149FKaren SantosBristow VA 20300:21:1621500:05:0514500:57:3022500:02:5913000:28:38 01:55:25 
1724232FJennifer MasonArlington VA 12200:17:1916900:04:0119301:01:2319900:02:1417300:31:10 01:56:06 
17370026FTiyisha ButlerAlexandria VA 21600:23:0918000:04:1617300:59:386800:01:1411600:27:57 01:56:12 
17428745FBel SerockiArlington VA 17500:19:277600:02:5317000:59:3114700:01:4519500:32:52 01:56:26 
17544246FTeresa MorrisLakewood CO 19700:20:4219500:04:2911000:55:0922700:03:0119800:33:17 01:56:35 
17625139FMarcie CookWashington DC 17000:19:2018300:04:2017200:59:3323300:03:0916200:30:20 01:56:39 
17747735FMarjorie HuntArlington VA 19100:20:2519100:04:2612500:55:4819600:02:1221000:34:31 01:57:20 
17818856FMary FosterLaytonsville MD 17800:19:3420700:04:5013700:57:0222900:03:0219600:32:59 01:57:25 
17971447FNemo (Helen) BrauchNags Head NC 9700:16:2711100:03:206200:51:1313500:01:4024600:45:01 01:57:39 
18030229FLindsey BrooksLeesburg VA 21500:23:0518100:04:1815800:58:3018800:02:0515800:29:54 01:57:51 
18147431FRebecca PurseStafford VA 20600:21:3516400:04:0016600:59:0814500:01:4518400:31:56 01:58:21 
18210048FDiana BragunierPort Tobacco MD 19000:20:2313500:03:3619101:01:1317700:01:5917600:31:23 01:58:33 
18340134FJulie HirokawaFredericksburg VA 22500:24:4319900:04:3419001:01:111900:00:549300:27:14 01:58:35 
1843026FPerrin ScanlonFairfax St. VA 13800:18:1019700:04:3220101:03:338200:01:1917700:31:25 01:58:57 
18526435FDebbie PedersonAlexandria VA 6400:15:0513800:03:3818801:00:4513000:01:3722900:38:08 01:59:11 
PlaceBibAgSNAMEcity/stateDQRankSWIMRankT1RankBikeRankT2RankRUNPENALTYTIMEDQ
1861245FLeslie Fitzgerald DollAlexandria VA 20100:21:1117000:04:0114800:57:5415100:01:4820700:34:25 01:59:18 
18766349FKris PetersenSilver Spring MD 9500:16:2715700:03:4815300:58:157900:01:1823400:39:41 01:59:27 
18839045FBonnie McCreadyArlington VA 18100:19:4322800:05:4318601:00:3514200:01:4418300:31:48 01:59:31 
18946752FDiana WilcoxLorton VA 22200:23:588200:02:5915000:57:565300:01:0720300:33:57 01:59:54 
19031730FGwen GallagherClifton VA 21000:22:0619800:04:3419501:01:449000:01:2116000:30:13 01:59:55 
19160468FCarolyn RiceBurke VA 23500:28:0417900:04:1511900:55:3021600:02:3915700:29:54 02:00:20 
19223426FElyse PertotAlexandria VA 20000:21:0816100:03:5420701:04:2313200:01:3714700:29:23 02:00:23 
1938351FElisa ColeHaymarket VA 21300:22:5015800:03:4917400:59:4115900:01:5019100:32:28 02:00:36 
19421326FAmy GreenbergRockville MD 10000:16:297500:02:5222301:08:0517500:01:5717800:31:28 02:00:49 
19524333FShannon CooperLocust Grove VA 8000:15:5510900:03:1820901:04:407300:01:1622000:36:48 02:01:54 
19615628FDanielle VaccaArlington VA 6100:15:0120900:04:5520301:03:594300:01:0222500:37:28 02:02:23 
19727958FMargery TurnerTemple Hills MD 19900:21:0021400:05:0518201:00:1121100:02:3020100:33:47 02:02:30 
19823331FErica Decker-GarnseyAshburn VA 22300:24:4022200:05:2620201:03:3622100:02:508000:26:42 02:03:12 
19911966FKari SprecherLeesburg VA 21200:22:4916000:03:5214200:57:2415400:01:4922300:37:23 02:03:14 
20069637FErin McManamonArlington VA 21800:23:2819600:04:3017901:00:0320800:02:2519700:33:00 02:03:24 
2018044FSusanne YoungAlexandria VA 22800:25:3813700:03:3620801:04:375900:01:1013600:28:50 02:03:50 
20244915FCasey KendallOak Hill VA 17400:19:2610800:03:1723101:11:0614800:01:4612500:28:18 02:03:52 
20365751FSimone RebaSpringfield VA 12800:17:3215400:03:4621001:04:4615700:01:5021400:36:00 02:03:52 
2045353FWendy ChristoffersonAlexandria VA 23100:26:4716500:04:0019601:02:0012000:01:3315400:29:48 02:04:06 
20570734FGretchen Forbes/SoirezParkton MD 24300:31:022800:02:1919701:02:015400:01:0711700:27:59 02:04:25 
20638434FAngela BarkanSavage MD 19300:20:3024200:06:3920401:04:0615500:01:4918600:32:03 02:05:05 
20733339FKaren TaggartWashington DC 18300:19:5621000:05:0016900:59:3022600:03:0022700:37:45 02:05:09 
20861438FErica PennWinchester VA 19800:20:5614600:03:4421201:05:197200:01:1620200:33:57 02:05:10 
20913533FAlison EddyArlington VA 16600:19:1421800:05:0918901:00:5420100:02:1622800:37:51 02:05:23 
21033431FJennierose D'EliaGaithersburg MD 18600:20:0319000:04:2519901:02:1624100:03:2721700:36:16 02:06:26 
2116034FColleen StacyLaurel MD 12700:17:2823300:06:1018401:00:1623500:03:1223300:39:24 02:06:28 
21229552FSara WattGaithersburg MD 20200:21:1223100:06:0120001:03:2524200:03:3619000:32:23 02:06:34 
21356758FDeb WolfeCentreville VA 24000:30:1020200:04:4014100:57:2320700:02:2318700:32:05 02:06:39 
21426316FAnnabelle LeahyBethesda MD 9000:16:1311000:03:1822701:10:031800:00:5421600:36:16 02:06:43 
21570154FSharon GriffingSpringfield VA 23900:30:0221600:05:0621301:05:2018700:02:054700:24:51 02:07:22 
21632533FHeather AndersonAshburn VA 20900:21:5818400:04:2119401:01:3423100:03:0622100:37:05 02:08:02 
PlaceBibAgSNAMEcity/stateDQRankSWIMRankT1RankBikeRankT2RankRUNPENALTYTIMEDQ
21766549FMichelle WalzVirginia Beach VA 17300:19:2613400:03:3621101:05:1719300:02:0923700:40:09 02:10:35 
2187556FKaren LehSterling VA 10600:16:4020300:04:4122501:08:4017900:01:5923200:38:43 02:10:42 
21931016FJessica RogersSpringfield VA 23000:26:21100:00:0024401:20:4020900:02:25300:21:29 02:10:54 
22030831FKatherine RyanWashington DC 16900:19:2022500:05:3623201:11:2218400:02:0420900:34:27 02:12:47 
22169437FA. D.Arlington VA 15100:18:4324600:07:0022901:10:5824800:04:5417900:31:32 02:13:05 
22266627FMelissa WoolleyArlington VA 13100:17:3318700:04:2522101:07:4919700:02:1323800:41:26 02:13:25 
22328530FMelissa GallagherBurke VA 21100:22:2520100:04:4021801:07:028300:01:1923000:38:14 02:13:38 
22469549FMargaret KrickFredericksburg VA 17700:19:3314400:03:4321401:05:3317100:01:5524000:43:04 02:13:46 
22554735FSarah MenonArlington VA 23400:28:0023200:06:0621501:05:4818600:02:0518900:32:08 02:14:05 
2262253FPenny MurrellArlington VA 22900:25:5022900:05:4922201:08:0120300:02:1719200:32:29 02:14:25 
227735FJennifer RuckerRockville MD 23700:29:2017500:04:0821901:07:4619200:02:0918800:32:08 02:15:29 
22844355FLiz SalakFalls Church VA 24200:30:1223900:06:3019801:02:0221800:02:4120500:34:11 02:15:35 
22965833FHolly WytkoElkridge MD 21700:23:2318600:04:2223301:11:4316900:01:5521200:35:15 02:16:36 
23070353FTina LanceSpotsylvania VA 22100:23:50200:01:2521601:06:02100:00:2824500:44:54 02:16:37 
23151755FDorothy WrightMontclair VA 24500:32:2724100:06:3322401:08:2121300:02:3216100:30:14 02:20:05 
23249533FShay AnkarBealeton VA 17100:19:2020800:04:5324101:15:494800:01:0423500:39:55 02:20:59 
23321820FAmy SkajaYorktown VA 20800:21:4522400:05:3323501:14:2916800:01:5422600:37:32 02:21:11 
23426747FNadine UrbanReston VA 20400:21:1923500:06:1824201:16:1622400:02:5521800:36:41 02:23:27 
23535365FMarianna GoodingMontclair VA 24700:33:0123600:06:1821701:06:1816300:01:5222200:37:19 02:24:46 
23670453FMary CraigCharlottesville VA 21900:23:3522000:05:2224501:21:416300:01:1219900:33:18 02:25:05 
23735137FSusan KuselArlington VA 22700:25:1620600:04:4823901:15:3612100:01:3323100:38:23 02:25:34 
23826153FJody BenitzAlexandria VA 24400:32:2124000:06:3222001:07:4724600:04:0821100:35:03 02:25:49 
23969738FLesley EicherHarrisonburg VA 8300:16:0224700:07:2024001:15:4123400:03:1224200:43:38 02:25:52 
24049732FWendy ForbesBaltimore MD 24100:30:1222600:05:3722801:10:4622000:02:4721900:36:44 02:26:05 
24132627FStephanie OsborneAlexandria VA 23300:27:3221700:05:0823401:13:1323200:03:0822400:37:28 02:26:26 
24227244FJanice AucellaAlexandria VA 18900:20:1024800:07:3823801:15:3023700:03:1524100:43:25 02:29:57 
24366831FAngela HallZelienople PA 23800:29:4614300:03:4222601:09:3422300:02:5524800:50:54 02:36:49 
24432231FKristen WillardSpringfield VA 24900:39:0023800:06:2523701:15:1424500:04:0721300:35:30 02:40:15 
24510225FMaica MosqueraVirginia Beach VA 25100:40:4210300:03:1523601:14:5511600:01:3223900:41:37 02:42:00 
24666944FKimberley BushAlexandria VA 23200:27:2023000:06:0024301:18:0624700:04:2024700:46:18 02:42:02 
24722831FErin SmithWilliamsburg VA 24600:32:3522700:05:4124801:24:2021400:02:3323600:39:59 02:45:06 
PlaceBibAgSNAMEcity/stateDQRankSWIMRankT1RankBikeRankT2RankRUNPENALTYTIMEDQ
24827527FOya WhiteAlexandria VA 5700:14:4222300:05:2623001:11:0223800:03:1924901:15:11 02:49:39 
24930544FMarie HasslerKing George VA 24800:34:4724500:06:5424601:22:3612900:01:3624400:44:18 02:50:09 
2504863FMargaret BatkoAlexandria VA 22600:24:4724900:07:4224901:35:5620200:02:1724300:43:40 02:54:21 
25169943FTerese SmithSpringfield VA 25000:39:3824400:06:4424701:23:33     03:01:53 

** Results are for the private use of participants and are the Intellectual Property of Set Up Events. Unauthorized use of these results is prohibited.